sensor_id;sensor_type;location;lat;lon;timestamp;temperature;humidity
35591;DHT22;30355;50.556;10.012;2023-12-28T00:00:31;18.80;43.50
35591;DHT22;30355;50.556;10.012;2023-12-28T00:10:33;18.80;43.40
35591;DHT22;30355;50.556;10.012;2023-12-28T00:20:35;18.90;43.50
35591;DHT22;30355;50.556;10.012;2023-12-28T00:30:37;18.80;43.40
35591;DHT22;30355;50.556;10.012;2023-12-28T00:40:39;18.80;43.40
35591;DHT22;30355;50.556;10.012;2023-12-28T00:50:42;18.80;43.50
35591;DHT22;30355;50.556;10.012;2023-12-28T01:00:44;18.80;43.40
35591;DHT22;30355;50.556;10.012;2023-12-28T01:10:47;18.80;43.50
35591;DHT22;30355;50.556;10.012;2023-12-28T01:20:50;18.80;43.40
35591;DHT22;30355;50.556;10.012;2023-12-28T01:30:52;18.80;43.40
35591;DHT22;30355;50.556;10.012;2023-12-28T01:40:54;18.80;43.40
35591;DHT22;30355;50.556;10.012;2023-12-28T01:50:58;18.70;43.30
35591;DHT22;30355;50.556;10.012;2023-12-28T02:01:01;18.70;43.30
35591;DHT22;30355;50.556;10.012;2023-12-28T02:11:03;18.70;43.30
35591;DHT22;30355;50.556;10.012;2023-12-28T02:21:06;18.80;43.30
35591;DHT22;30355;50.556;10.012;2023-12-28T02:31:28;18.70;43.30
35591;DHT22;30355;50.556;10.012;2023-12-28T02:41:35;18.70;43.20
35591;DHT22;30355;50.556;10.012;2023-12-28T02:51:37;18.70;43.30
35591;DHT22;30355;50.556;10.012;2023-12-28T03:01:39;18.70;43.30
35591;DHT22;30355;50.556;10.012;2023-12-28T03:11:41;18.70;43.20
35591;DHT22;30355;50.556;10.012;2023-12-28T03:21:43;18.70;43.20
35591;DHT22;30355;50.556;10.012;2023-12-28T03:31:45;18.70;43.20
35591;DHT22;30355;50.556;10.012;2023-12-28T03:41:47;18.70;43.20
35591;DHT22;30355;50.556;10.012;2023-12-28T03:51:50;18.70;43.20
35591;DHT22;30355;50.556;10.012;2023-12-28T04:01:53;18.70;43.20
35591;DHT22;30355;50.556;10.012;2023-12-28T04:11:55;18.70;43.20
35591;DHT22;30355;50.556;10.012;2023-12-28T04:21:57;18.70;43.20
35591;DHT22;30355;50.556;10.012;2023-12-28T04:31:59;18.60;43.10
35591;DHT22;30355;50.556;10.012;2023-12-28T04:42:02;18.60;43.10
35591;DHT22;30355;50.556;10.012;2023-12-28T04:52:04;18.60;43.10
35591;DHT22;30355;50.556;10.012;2023-12-28T05:02:07;18.60;43.10
35591;DHT22;30355;50.556;10.012;2023-12-28T05:12:10;18.60;43.70
35591;DHT22;30355;50.556;10.012;2023-12-28T05:22:12;18.60;43.10
35591;DHT22;30355;50.556;10.012;2023-12-28T05:32:14;18.60;43.10
35591;DHT22;30355;50.556;10.012;2023-12-28T05:42:16;18.60;43.10
35591;DHT22;30355;50.556;10.012;2023-12-28T05:52:18;18.70;43.40
35591;DHT22;30355;50.556;10.012;2023-12-28T06:02:21;19.00;43.30
35591;DHT22;30355;50.556;10.012;2023-12-28T06:12:23;19.30;43.20
35591;DHT22;30355;50.556;10.012;2023-12-28T06:22:25;19.40;42.90
35591;DHT22;30355;50.556;10.012;2023-12-28T06:32:29;19.60;42.80
35591;DHT22;30355;50.556;10.012;2023-12-28T06:42:32;19.60;42.60
35591;DHT22;30355;50.556;10.012;2023-12-28T06:52:34;19.70;42.50
35591;DHT22;30355;50.556;10.012;2023-12-28T07:02:36;19.60;42.40
35591;DHT22;30355;50.556;10.012;2023-12-28T07:12:39;19.60;42.40
35591;DHT22;30355;50.556;10.012;2023-12-28T07:22:41;19.50;42.40
35591;DHT22;30355;50.556;10.012;2023-12-28T07:32:44;19.50;42.40
35591;DHT22;30355;50.556;10.012;2023-12-28T07:42:47;19.40;42.40
35591;DHT22;30355;50.556;10.012;2023-12-28T07:52:49;19.40;42.40
35591;DHT22;30355;50.556;10.012;2023-12-28T08:02:51;19.30;42.40
35591;DHT22;30355;50.556;10.012;2023-12-28T08:12:53;19.30;42.40
35591;DHT22;30355;50.556;10.012;2023-12-28T08:22:55;19.30;42.50
35591;DHT22;30355;50.556;10.012;2023-12-28T08:33:15;19.20;42.40
35591;DHT22;30355;50.556;10.012;2023-12-28T08:43:18;19.20;42.50
35591;DHT22;30355;50.556;10.012;2023-12-28T08:53:20;19.10;42.50
35591;DHT22;30355;50.556;10.012;2023-12-28T09:03:22;19.10;42.50
35591;DHT22;30355;50.556;10.012;2023-12-28T09:13:26;19.10;42.70
35591;DHT22;30355;50.556;10.012;2023-12-28T09:23:27;19.20;42.70
35591;DHT22;30355;50.556;10.012;2023-12-28T09:33:30;19.30;42.70
35591;DHT22;30355;50.556;10.012;2023-12-28T09:43:35;19.30;42.60
35591;DHT22;30355;50.556;10.012;2023-12-28T09:53:39;19.30;42.50
35591;DHT22;30355;50.556;10.012;2023-12-28T10:03:41;19.30;42.60
35591;DHT22;30355;50.556;10.012;2023-12-28T10:13:44;19.30;42.60
35591;DHT22;30355;50.556;10.012;2023-12-28T10:23:47;19.30;42.60
35591;DHT22;30355;50.556;10.012;2023-12-28T10:33:49;19.30;42.60
35591;DHT22;30355;50.556;10.012;2023-12-28T11:04:40;19.20;42.50
35591;DHT22;30355;50.556;10.012;2023-12-28T11:14:45;19.20;42.50
35591;DHT22;30355;50.556;10.012;2023-12-28T11:24:52;19.20;42.70
35591;DHT22;30355;50.556;10.012;2023-12-28T11:34:58;19.20;42.70
35591;DHT22;30355;50.556;10.012;2023-12-28T11:45:00;19.20;42.70
35591;DHT22;30355;50.556;10.012;2023-12-28T11:55:02;19.20;42.80
35591;DHT22;30355;50.556;10.012;2023-12-28T12:05:08;19.20;42.80
35591;DHT22;30355;50.556;10.012;2023-12-28T12:15:10;19.30;42.80
35591;DHT22;30355;50.556;10.012;2023-12-28T12:25:12;19.30;42.80
35591;DHT22;30355;50.556;10.012;2023-12-28T12:35:15;19.30;42.80
35591;DHT22;30355;50.556;10.012;2023-12-28T12:45:18;19.30;42.80
35591;DHT22;30355;50.556;10.012;2023-12-28T12:55:20;19.30;42.80
35591;DHT22;30355;50.556;10.012;2023-12-28T13:05:24;19.30;42.80
35591;DHT22;30355;50.556;10.012;2023-12-28T13:15:27;19.30;42.70
35591;DHT22;30355;50.556;10.012;2023-12-28T13:25:30;19.30;42.80
35591;DHT22;30355;50.556;10.012;2023-12-28T13:35:32;19.30;42.80
35591;DHT22;30355;50.556;10.012;2023-12-28T13:45:37;19.40;42.80
35591;DHT22;30355;50.556;10.012;2023-12-28T13:55:39;19.40;42.80
35591;DHT22;30355;50.556;10.012;2023-12-28T14:05:41;19.40;42.80
35591;DHT22;30355;50.556;10.012;2023-12-28T14:15:44;19.40;42.80
35591;DHT22;30355;50.556;10.012;2023-12-28T14:25:46;19.50;42.90
35591;DHT22;30355;50.556;10.012;2023-12-28T14:35:55;19.50;42.80
35591;DHT22;30355;50.556;10.012;2023-12-28T14:45:57;19.50;42.80
35591;DHT22;30355;50.556;10.012;2023-12-28T14:56:00;19.40;42.70
35591;DHT22;30355;50.556;10.012;2023-12-28T15:06:02;19.40;42.70
35591;DHT22;30355;50.556;10.012;2023-12-28T15:16:04;19.40;42.70
35591;DHT22;30355;50.556;10.012;2023-12-28T15:26:07;19.30;42.70
35591;DHT22;30355;50.556;10.012;2023-12-28T15:36:09;19.30;42.70
35591;DHT22;30355;50.556;10.012;2023-12-28T15:46:12;19.30;42.70
35591;DHT22;30355;50.556;10.012;2023-12-28T15:56:14;19.30;42.80
35591;DHT22;30355;50.556;10.012;2023-12-28T16:06:20;19.30;42.80
35591;DHT22;30355;50.556;10.012;2023-12-28T16:16:23;19.30;42.80
35591;DHT22;30355;50.556;10.012;2023-12-28T16:26:25;19.30;42.70
35591;DHT22;30355;50.556;10.012;2023-12-28T16:36:27;19.30;42.80
35591;DHT22;30355;50.556;10.012;2023-12-28T16:46:29;19.20;42.70
35591;DHT22;30355;50.556;10.012;2023-12-28T16:56:31;19.20;42.80
35591;DHT22;30355;50.556;10.012;2023-12-28T17:06:33;19.20;42.80
35591;DHT22;30355;50.556;10.012;2023-12-28T17:16:36;19.20;42.80
35591;DHT22;30355;50.556;10.012;2023-12-28T17:26:47;19.20;42.80
35591;DHT22;30355;50.556;10.012;2023-12-28T17:36:53;19.10;42.70
35591;DHT22;30355;50.556;10.012;2023-12-28T17:47:02;19.10;42.80
35591;DHT22;30355;50.556;10.012;2023-12-28T17:57:08;19.10;42.80
35591;DHT22;30355;50.556;10.012;2023-12-28T18:07:10;19.10;42.80
35591;DHT22;30355;50.556;10.012;2023-12-28T18:17:14;19.10;42.90
35591;DHT22;30355;50.556;10.012;2023-12-28T18:27:16;19.20;43.00
35591;DHT22;30355;50.556;10.012;2023-12-28T18:37:21;19.40;42.90
35591;DHT22;30355;50.556;10.012;2023-12-28T18:47:23;19.40;42.70
35591;DHT22;30355;50.556;10.012;2023-12-28T18:57:25;19.50;42.70
35591;DHT22;30355;50.556;10.012;2023-12-28T19:07:27;19.40;42.60
35591;DHT22;30355;50.556;10.012;2023-12-28T19:17:30;19.50;42.70
35591;DHT22;30355;50.556;10.012;2023-12-28T19:27:32;19.40;42.60
35591;DHT22;30355;50.556;10.012;2023-12-28T19:37:34;19.40;43.20
35591;DHT22;30355;50.556;10.012;2023-12-28T19:47:36;19.40;42.60
35591;DHT22;30355;50.556;10.012;2023-12-28T19:57:38;19.40;42.60
35591;DHT22;30355;50.556;10.012;2023-12-28T20:07:41;19.30;42.60
35591;DHT22;30355;50.556;10.012;2023-12-28T20:17:43;19.30;42.60
35591;DHT22;30355;50.556;10.012;2023-12-28T20:27:46;19.30;42.70
35591;DHT22;30355;50.556;10.012;2023-12-28T20:37:48;19.20;42.60
35591;DHT22;30355;50.556;10.012;2023-12-28T20:47:52;19.20;42.70
35591;DHT22;30355;50.556;10.012;2023-12-28T20:57:54;19.20;42.70
35591;DHT22;30355;50.556;10.012;2023-12-28T21:07:56;19.20;42.80
35591;DHT22;30355;50.556;10.012;2023-12-28T21:17:59;19.10;42.80
35591;DHT22;30355;50.556;10.012;2023-12-28T21:28:16;19.20;42.80
35591;DHT22;30355;50.556;10.012;2023-12-28T21:38:19;19.20;42.80
35591;DHT22;30355;50.556;10.012;2023-12-28T21:48:21;19.20;42.80
35591;DHT22;30355;50.556;10.012;2023-12-28T21:58:23;19.10;42.80
35591;DHT22;30355;50.556;10.012;2023-12-28T22:08:26;19.20;42.90
35591;DHT22;30355;50.556;10.012;2023-12-28T22:18:28;19.10;42.80
35591;DHT22;30355;50.556;10.012;2023-12-28T22:28:31;19.10;42.80
35591;DHT22;30355;50.556;10.012;2023-12-28T22:38:33;19.10;42.80
35591;DHT22;30355;50.556;10.012;2023-12-28T22:48:35;19.10;42.80
35591;DHT22;30355;50.556;10.012;2023-12-28T22:58:37;19.10;42.80
35591;DHT22;30355;50.556;10.012;2023-12-28T23:08:39;19.10;42.90
35591;DHT22;30355;50.556;10.012;2023-12-28T23:18:42;19.10;43.50
35591;DHT22;30355;50.556;10.012;2023-12-28T23:28:44;19.10;42.90
35591;DHT22;30355;50.556;10.012;2023-12-28T23:38:46;19.00;42.90
35591;DHT22;30355;50.556;10.012;2023-12-28T23:48:48;19.00;42.90
35591;DHT22;30355;50.556;10.012;2023-12-28T23:58:51;19.00;42.90
